Azalea Ace — A8ZJ6 — position and weather

sailwx.info

Track history (hours):
 
Tides and Currents Weather Stations Pressure Air Temp Water Temp Dewpoint Dewpoint Depression Visibility Wind Speed Wind Dir Waves Ship Positions

Azalea Ace

Last reported at 2014-Nov-23 23:33 UTC. Time now 2014-Nov-24 00:18 UTC.
Position N 32°17' W 123°11'.

Length 180 m; draft 7.5 m.

Type: Ship. MMSI: 636015228.

Date/timePositionNaut miles runAvg speedWind from/ knotsBaromVisibWave heightAir tempDewpointWater temp
2014-Nov-23 23:33N 32°17' W 123°11'1312.6
2014-Nov-23 22:33N 32°15' W 122°56'1712.4
2014-Nov-23 21:11N 32°13' W 122°36'2612.5
2014-Nov-23 19:08N 32°11' W 122°06'713.0
2014-Nov-23 18:33N 32°10' W 121°57'6312.7
2014-Nov-23 13:33N 32°10' W 120°42'1212.5
2014-Nov-23 12:33N 32°10' W 120°27'3812.7
2014-Nov-23 09:33N 32°10' W 119°42'1512.9
2014-Nov-23 08:21N 32°10' W 119°24'1113.1
2014-Nov-23 07:33N 32°10' W 119°12'1413.0
2014-Nov-23 06:29N 32°10' W 118°55'1213.0
2014-Nov-23 05:33N 32°10' W 118°41'1312.9
2014-Nov-23 04:33N 32°10' W 118°26'1312.4
2014-Nov-23 03:30N 32°10' W 118°10'1212.3
2014-Nov-23 02:33N 32°14' W 117°57'1313.2
2014-Nov-23 01:33N 32°20' W 117°43'1313.1
2014-Nov-23 00:33N 32°27' W 117°30'1313.0
2014-Nov-22 23:33N 32°34' W 117°17'10 9.7
2014-Nov-22 22:33N 32°43' W 117°13'6 5.4
2014-Nov-22 21:30N 32°39' W 117°07'0 0.0
2014-Nov-22 20:33N 32°39' W 117°07'0 0.0
2014-Nov-22 19:33N 32°39' W 117°07'0 0.0
2014-Nov-22 18:33N 32°39' W 117°07'0 0.0
2014-Nov-22 17:30N 32°39' W 117°07'0 0.0
2014-Nov-22 16:33N 32°39' W 117°07'0 0.0
2014-Nov-22 15:33N 32°39' W 117°07'5 4.9
2014-Nov-22 14:33N 32°43' W 117°11'7 7.1
2014-Nov-22 13:33N 32°37' W 117°16'8 7.7
2014-Nov-22 12:33N 32°42' W 117°23'1211.5
2014-Nov-22 11:33N 32°50' W 117°33'1615.6
2014-Nov-22 10:33N 33°02' W 117°45'1817.9
2014-Nov-22 09:33N 33°14' W 118°00'1414.1
2014-Nov-22 08:33N 33°26' W 118°09'1211.6
2014-Nov-22 07:33N 33°37' W 118°14'8 8.3
2014-Nov-22 06:34N 33°45' W 118°16'2 1.5
2014-Nov-22 05:31N 33°46' W 118°15'0 0.0
2014-Nov-22 04:31N 33°46' W 118°15'0 0.0
2014-Nov-22 03:31N 33°46' W 118°15'0 0.0
2014-Nov-22 02:31N 33°46' W 118°15'0 0.0
2014-Nov-22 01:31N 33°46' W 118°15'0 0.4
2014-Nov-22 00:33N 33°46' W 118°15'0 0.0
2014-Nov-21 23:33N 33°46' W 118°15'0 0.0
2014-Nov-21 22:33N 33°46' W 118°15'0 0.0
2014-Nov-21 21:33N 33°46' W 118°15'0 0.0
2014-Nov-21 20:33N 33°46' W 118°15'0 0.0
2014-Nov-21 19:33N 33°46' W 118°15'0 0.0
2014-Nov-21 18:33N 33°46' W 118°15'0 0.0
2014-Nov-21 17:33N 33°46' W 118°15'0 0.0
2014-Nov-21 16:33N 33°46' W 118°15'0 0.0
2014-Nov-21 15:33N 33°46' W 118°15'0 0.0
2014-Nov-21 14:33N 33°46' W 118°15'0 0.0
2014-Nov-21 13:33N 33°46' W 118°15'0 0.0
2014-Nov-21 12:33N 33°46' W 118°15'0 0.0
2014-Nov-21 11:33N 33°46' W 118°15'3 2.6
2014-Nov-21 10:33N 33°44' W 118°16'10 9.6
2014-Nov-21 09:33N 33°36' W 118°10'1010.5
2014-Nov-21 08:33N 33°26' W 118°05'1010.1
2014-Nov-21 07:34N 33°19' W 117°56'1 0.5
2014-Nov-21 06:33N 33°19' W 117°56'6 6.0
2014-Nov-21 05:33N 33°21' W 118°03'1111.1
2014-Nov-21 04:33N 33°10' W 118°01'1111.0
2014-Nov-21 03:33N 32°59' W 118°01'1716.9
2014-Nov-21 02:33N 32°42' W 117°59'1616.3
2014-Nov-21 01:33N 32°26' W 118°00'1716.2
2014-Nov-21 00:30N 32°18' W 118°18'24016.9
2014-Nov-20 10:22N 35°01' W 121°49'1519.1
2014-Nov-20 09:33N 35°15' W 121°57'1918.9
2014-Nov-20 08:33N 35°32' W 122°07'1918.8
2014-Nov-20 07:34N 35°49' W 122°17'1918.7
2014-Nov-20 06:33N 36°06' W 122°27'1918.7
2014-Nov-20 05:33N 36°23' W 122°37'1918.9
2014-Nov-20 04:33N 36°39' W 122°48'2019.5
2014-Nov-20 03:33N 36°57' W 122°58'1717.1
2014-Nov-20 02:33N 37°14' W 123°05'1515.2
2014-Nov-20 01:34N 37°29' W 123°06'1515.4
2014-Nov-20 00:34N 37°40' W 122°53'1212.3
2014-Nov-19 23:33N 37°46' W 122°39'1413.7
2014-Nov-19 22:34N 37°54' W 122°25'3 2.7
2014-Nov-19 21:33N 37°54' W 122°22'0 0.0
2014-Nov-19 20:33N 37°54' W 122°22'0 0.0
2014-Nov-19 19:33N 37°54' W 122°22'0 0.0
2014-Nov-19 18:33N 37°54' W 122°22'0 0.0
2014-Nov-19 17:33N 37°54' W 122°22'0 0.0
2014-Nov-19 16:33N 37°54' W 122°22'0 0.0
2014-Nov-19 15:33N 37°54' W 122°22'0 0.0
2014-Nov-19 14:33N 37°54' W 122°22'1 0.9
2014-Nov-19 13:33N 37°54' W 122°23'7 7.0
2014-Nov-19 12:34N 37°49' W 122°29'1212.3
2014-Nov-19 11:34N 37°46' W 122°44'1211.5
2014-Nov-19 10:34N 37°51' W 122°57'1615.9
2014-Nov-19 09:34N 38°00' W 123°14'1716.8
2014-Nov-19 08:34N 38°13' W 123°28'1716.9
2014-Nov-19 07:34N 38°26' W 123°42'1616.4
2014-Nov-19 06:33N 38°38' W 123°56'38916.7
2014-Nov-18 07:14N 45°06' W 124°35'1218.4
2014-Nov-18 06:33N 45°18' W 124°32'1918.6
2014-Nov-18 05:33N 45°37' W 124°27'1818.6
2014-Nov-18 04:33N 45°55' W 124°22'1918.6
2014-Nov-18 03:33N 46°12' W 124°11'1312.7
2014-Nov-18 02:33N 46°11' W 123°53'1111.4
2014-Nov-18 01:34N 46°16' W 123°38'1312.6
2014-Nov-18 00:33N 46°09' W 123°22'1515.5
2014-Nov-17 23:33N 46°08' W 123°00'1111.1
2014-Nov-17 22:33N 45°59' W 122°50'1312.7
2014-Nov-17 21:33N 45°47' W 122°46'9 8.7
2014-Nov-17 20:33N 45°38' W 122°44'0 0.0
2014-Nov-17 19:32N 45°38' W 122°44'0 0.0
2014-Nov-17 18:26N 45°38' W 122°44'0 0.0
2014-Nov-17 17:29N 45°38' W 122°44'0 0.0
2014-Nov-17 16:32N 45°38' W 122°44'0 0.0
2014-Nov-17 15:29N 45°38' W 122°44'0 0.0
2014-Nov-17 14:29N 45°38' W 122°44'0 0.0
2014-Nov-17 13:26N 45°38' W 122°44'0 0.0
2014-Nov-17 12:29N 45°38' W 122°44'0 0.0
2014-Nov-17 11:32N 45°38' W 122°44'0 0.0
2014-Nov-17 10:26N 45°38' W 122°44'1 0.8
2014-Nov-17 09:33N 45°39' W 122°45'1010.5
2014-Nov-17 08:33N 45°49' W 122°48'1111.5
2014-Nov-17 07:33N 46°00' W 122°51'1010.1
2014-Nov-17 06:33N 46°08' W 123°00'1212.5
2014-Nov-17 05:34N 46°09' W 123°18'1111.0
2014-Nov-17 04:34N 46°16' W 123°30'1413.7
2014-Nov-17 03:33N 46°12' W 123°49'1211.7
2014-Nov-17 02:34N 46°15' W 124°05'1313.2
2014-Nov-17 01:34N 46°19' W 124°23'1717.4
2014-Nov-17 00:33N 46°35' W 124°35'1818.0
2014-Nov-16 23:34N 46°50' W 124°48'1717.4
2014-Nov-16 22:34N 47°06' W 124°58'7117.6
2014-Nov-16 18:32N 48°16' W 125°15'1818.3
2014-Nov-16 17:33N 48°31' W 124°60'1818.3
2014-Nov-16 16:34N 48°28' W 124°32'1918.8
2014-Nov-16 15:34N 48°20' W 124°06'1918.5
2014-Nov-16 14:33N 48°16' W 123°39'1413.8
2014-Nov-16 13:33N 48°08' W 123°22'1716.6
2014-Nov-16 12:33N 48°12' W 122°57'1817.7
2014-Nov-16 11:34N 48°01' W 122°37'1818.0
2014-Nov-16 10:33N 47°44' W 122°26'1817.9
2014-Nov-16 09:34N 47°27' W 122°24'1010.1
2014-Nov-16 08:33N 47°17' W 122°24'1 1.4
2014-Nov-16 07:33N 47°16' W 122°23'0 0.0
2014-Nov-16 06:30N 47°16' W 122°23'0 0.0
2014-Nov-16 05:30N 47°16' W 122°23'0 0.0
2014-Nov-16 04:33N 47°16' W 122°23'0 0.0
2014-Nov-16 03:30N 47°16' W 122°23'0 0.0
2014-Nov-16 02:24N 47°16' W 122°23'0 0.2
2014-Nov-16 01:33N 47°16' W 122°23'0 0.0
2014-Nov-16 00:30N 47°16' W 122°23'0 0.0
2014-Nov-15 23:33N 47°16' W 122°23'0 0.0
2014-Nov-15 22:33N 47°16' W 122°23'0 0.0
2014-Nov-15 21:30N 47°16' W 122°23'0 0.0
2014-Nov-15 20:33N 47°16' W 122°23'0 0.0
2014-Nov-15 19:27N 47°16' W 122°23'0 0.0
2014-Nov-15 18:33N 47°16' W 122°23'0 0.0
2014-Nov-15 17:27N 47°16' W 122°23'0 0.0
2014-Nov-15 16:33N 47°16' W 122°23'3 3.0
2014-Nov-15 15:33N 47°18' W 122°26'1111.5
2014-Nov-15 14:33N 47°29' W 122°25'1918.9
2014-Nov-15 13:33N 47°48' W 122°27'1817.5
2014-Nov-15 12:33N 48°04' W 122°39'1615.7
2014-Nov-15 11:33N 48°12' W 122°60'1515.2
2014-Nov-15 10:33N 48°10' W 123°22'8 7.9
2014-Nov-15 09:33N 48°16' W 123°29'1010.4
2014-Nov-15 08:33N 48°23' W 123°17'1817.7
2014-Nov-15 07:33N 48°41' W 123°15'1312.7
2014-Nov-15 06:33N 48°52' W 123°07'1515.5
2014-Nov-15 05:34N 49°05' W 123°20'1110.8
2014-Nov-15 04:33N 49°08' W 123°04'7 6.6
2014-Nov-15 03:32N 49°11' W 122°55'0 0.0
2014-Nov-15 02:32N 49°11' W 122°55'0 0.0
2014-Nov-15 01:32N 49°11' W 122°55'0 0.0
2014-Nov-15 00:29N 49°11' W 122°55'0 0.0
2014-Nov-14 23:34N 49°11' W 122°55'4 4.2
2014-Nov-14 22:34N 49°09' W 123°01'9 9.1
2014-Nov-14 21:33N 49°08' W 123°15'8 8.3
2014-Nov-14 20:33N 48°59' W 123°14'1615.6
2014-Nov-14 19:33N 48°45' W 123°03'1514.8
2014-Nov-14 18:33N 48°31' W 123°11'1212.1
2014-Nov-14 17:33N 48°22' W 123°23'6 6.3
2014-Nov-14 16:33N 48°16' W 123°26'8 8.0
2014-Nov-14 15:33N 48°13' W 123°38'1010.1
2014-Nov-14 14:33N 48°13' W 123°53'2612.9
2014-Nov-14 12:33N 48°24' W 124°28'1313.0
2014-Nov-14 11:33N 48°29' W 124°46'1212.4
2014-Nov-14 10:33N 48°28' W 125°05'1312.6
2014-Nov-14 09:33N 48°25' W 125°23'1212.0
2014-Nov-14 08:33N 48°19' W 125°39'1312.7
2014-Nov-14 07:33N 48°12' W 125°55'  
Track history (hours):
 
Tides and Currents Weather Stations Pressure Air Temp Water Temp Dewpoint Dewpoint Depression Visibility Wind Speed Wind Dir Waves Ship Positions

Azalea Ace

Last reported at 2014-Nov-23 23:33 UTC. Time now 2014-Nov-24 00:18 UTC.
Position N 32°17' W 123°11'.

Length 180 m; draft 7.5 m.

Type: Ship. MMSI: 636015228.

Date/timePositionNaut miles runAvg speedWind from/ knotsBaromVisibWave heightAir tempDewpointWater temp
2014-Nov-23 23:33N 32°17' W 123°11'1312.6
2014-Nov-23 22:33N 32°15' W 122°56'1712.4
2014-Nov-23 21:11N 32°13' W 122°36'2612.5
2014-Nov-23 19:08N 32°11' W 122°06'713.0
2014-Nov-23 18:33N 32°10' W 121°57'6312.7
2014-Nov-23 13:33N 32°10' W 120°42'1212.5
2014-Nov-23 12:33N 32°10' W 120°27'3812.7
2014-Nov-23 09:33N 32°10' W 119°42'1512.9
2014-Nov-23 08:21N 32°10' W 119°24'1113.1
2014-Nov-23 07:33N 32°10' W 119°12'1413.0
2014-Nov-23 06:29N 32°10' W 118°55'1213.0
2014-Nov-23 05:33N 32°10' W 118°41'1312.9
2014-Nov-23 04:33N 32°10' W 118°26'1312.4
2014-Nov-23 03:30N 32°10' W 118°10'1212.3
2014-Nov-23 02:33N 32°14' W 117°57'1313.2
2014-Nov-23 01:33N 32°20' W 117°43'1313.1
2014-Nov-23 00:33N 32°27' W 117°30'1313.0
2014-Nov-22 23:33N 32°34' W 117°17'10 9.7
2014-Nov-22 22:33N 32°43' W 117°13'6 5.4
2014-Nov-22 21:30N 32°39' W 117°07'0 0.0
2014-Nov-22 20:33N 32°39' W 117°07'0 0.0
2014-Nov-22 19:33N 32°39' W 117°07'0 0.0
2014-Nov-22 18:33N 32°39' W 117°07'0 0.0
2014-Nov-22 17:30N 32°39' W 117°07'0 0.0
2014-Nov-22 16:33N 32°39' W 117°07'0 0.0
2014-Nov-22 15:33N 32°39' W 117°07'5 4.9
2014-Nov-22 14:33N 32°43' W 117°11'7 7.1
2014-Nov-22 13:33N 32°37' W 117°16'8 7.7
2014-Nov-22 12:33N 32°42' W 117°23'1211.5
2014-Nov-22 11:33N 32°50' W 117°33'1615.6
2014-Nov-22 10:33N 33°02' W 117°45'1817.9
2014-Nov-22 09:33N 33°14' W 118°00'1414.1
2014-Nov-22 08:33N 33°26' W 118°09'1211.6
2014-Nov-22 07:33N 33°37' W 118°14'8 8.3
2014-Nov-22 06:34N 33°45' W 118°16'2 1.5
2014-Nov-22 05:31N 33°46' W 118°15'0 0.0
2014-Nov-22 04:31N 33°46' W 118°15'0 0.0
2014-Nov-22 03:31N 33°46' W 118°15'0 0.0
2014-Nov-22 02:31N 33°46' W 118°15'0 0.0
2014-Nov-22 01:31N 33°46' W 118°15'0 0.4
2014-Nov-22 00:33N 33°46' W 118°15'0 0.0
2014-Nov-21 23:33N 33°46' W 118°15'0 0.0
2014-Nov-21 22:33N 33°46' W 118°15'0 0.0
2014-Nov-21 21:33N 33°46' W 118°15'0 0.0
2014-Nov-21 20:33N 33°46' W 118°15'0 0.0
2014-Nov-21 19:33N 33°46' W 118°15'0 0.0
2014-Nov-21 18:33N 33°46' W 118°15'0 0.0
2014-Nov-21 17:33N 33°46' W 118°15'0 0.0
2014-Nov-21 16:33N 33°46' W 118°15'0 0.0
2014-Nov-21 15:33N 33°46' W 118°15'0 0.0
2014-Nov-21 14:33N 33°46' W 118°15'0 0.0
2014-Nov-21 13:33N 33°46' W 118°15'0 0.0
2014-Nov-21 12:33N 33°46' W 118°15'0 0.0
2014-Nov-21 11:33N 33°46' W 118°15'3 2.6
2014-Nov-21 10:33N 33°44' W 118°16'10 9.6
2014-Nov-21 09:33N 33°36' W 118°10'1010.5
2014-Nov-21 08:33N 33°26' W 118°05'1010.1
2014-Nov-21 07:34N 33°19' W 117°56'1 0.5
2014-Nov-21 06:33N 33°19' W 117°56'6 6.0
2014-Nov-21 05:33N 33°21' W 118°03'1111.1
2014-Nov-21 04:33N 33°10' W 118°01'1111.0
2014-Nov-21 03:33N 32°59' W 118°01'1716.9
2014-Nov-21 02:33N 32°42' W 117°59'1616.3
2014-Nov-21 01:33N 32°26' W 118°00'1716.2
2014-Nov-21 00:30N 32°18' W 118°18'24016.9
2014-Nov-20 10:22N 35°01' W 121°49'1519.1
2014-Nov-20 09:33N 35°15' W 121°57'1918.9
2014-Nov-20 08:33N 35°32' W 122°07'1918.8
2014-Nov-20 07:34N 35°49' W 122°17'1918.7
2014-Nov-20 06:33N 36°06' W 122°27'1918.7
2014-Nov-20 05:33N 36°23' W 122°37'1918.9
2014-Nov-20 04:33N 36°39' W 122°48'2019.5
2014-Nov-20 03:33N 36°57' W 122°58'1717.1
2014-Nov-20 02:33N 37°14' W 123°05'1515.2
2014-Nov-20 01:34N 37°29' W 123°06'1515.4
2014-Nov-20 00:34N 37°40' W 122°53'1212.3
2014-Nov-19 23:33N 37°46' W 122°39'1413.7
2014-Nov-19 22:34N 37°54' W 122°25'3 2.7
2014-Nov-19 21:33N 37°54' W 122°22'0 0.0
2014-Nov-19 20:33N 37°54' W 122°22'0 0.0
2014-Nov-19 19:33N 37°54' W 122°22'0 0.0
2014-Nov-19 18:33N 37°54' W 122°22'0 0.0
2014-Nov-19 17:33N 37°54' W 122°22'0 0.0
2014-Nov-19 16:33N 37°54' W 122°22'0 0.0
2014-Nov-19 15:33N 37°54' W 122°22'0 0.0
2014-Nov-19 14:33N 37°54' W 122°22'1 0.9
2014-Nov-19 13:33N 37°54' W 122°23'7 7.0
2014-Nov-19 12:34N 37°49' W 122°29'1212.3
2014-Nov-19 11:34N 37°46' W 122°44'1211.5
2014-Nov-19 10:34N 37°51' W 122°57'1615.9
2014-Nov-19 09:34N 38°00' W 123°14'1716.8
2014-Nov-19 08:34N 38°13' W 123°28'1716.9
2014-Nov-19 07:34N 38°26' W 123°42'1616.4
2014-Nov-19 06:33N 38°38' W 123°56'38916.7
2014-Nov-18 07:14N 45°06' W 124°35'1218.4
2014-Nov-18 06:33N 45°18' W 124°32'1918.6
2014-Nov-18 05:33N 45°37' W 124°27'1818.6
2014-Nov-18 04:33N 45°55' W 124°22'1918.6
2014-Nov-18 03:33N 46°12' W 124°11'1312.7
2014-Nov-18 02:33N 46°11' W 123°53'1111.4
2014-Nov-18 01:34N 46°16' W 123°38'1312.6
2014-Nov-18 00:33N 46°09' W 123°22'1515.5
2014-Nov-17 23:33N 46°08' W 123°00'1111.1
2014-Nov-17 22:33N 45°59' W 122°50'1312.7
2014-Nov-17 21:33N 45°47' W 122°46'9 8.7
2014-Nov-17 20:33N 45°38' W 122°44'0 0.0
2014-Nov-17 19:32N 45°38' W 122°44'0 0.0
2014-Nov-17 18:26N 45°38' W 122°44'0 0.0
2014-Nov-17 17:29N 45°38' W 122°44'0 0.0
2014-Nov-17 16:32N 45°38' W 122°44'0 0.0
2014-Nov-17 15:29N 45°38' W 122°44'0 0.0
2014-Nov-17 14:29N 45°38' W 122°44'0 0.0
2014-Nov-17 13:26N 45°38' W 122°44'0 0.0
2014-Nov-17 12:29N 45°38' W 122°44'0 0.0
2014-Nov-17 11:32N 45°38' W 122°44'0 0.0
2014-Nov-17 10:26N 45°38' W 122°44'1 0.8
2014-Nov-17 09:33N 45°39' W 122°45'1010.5
2014-Nov-17 08:33N 45°49' W 122°48'1111.5
2014-Nov-17 07:33N 46°00' W 122°51'1010.1
2014-Nov-17 06:33N 46°08' W 123°00'1212.5
2014-Nov-17 05:34N 46°09' W 123°18'1111.0
2014-Nov-17 04:34N 46°16' W 123°30'1413.7
2014-Nov-17 03:33N 46°12' W 123°49'1211.7
2014-Nov-17 02:34N 46°15' W 124°05'1313.2
2014-Nov-17 01:34N 46°19' W 124°23'1717.4
2014-Nov-17 00:33N 46°35' W 124°35'1818.0
2014-Nov-16 23:34N 46°50' W 124°48'1717.4
2014-Nov-16 22:34N 47°06' W 124°58'7117.6
2014-Nov-16 18:32N 48°16' W 125°15'1818.3
2014-Nov-16 17:33N 48°31' W 124°60'1818.3
2014-Nov-16 16:34N 48°28' W 124°32'1918.8
2014-Nov-16 15:34N 48°20' W 124°06'1918.5
2014-Nov-16 14:33N 48°16' W 123°39'1413.8
2014-Nov-16 13:33N 48°08' W 123°22'1716.6
2014-Nov-16 12:33N 48°12' W 122°57'1817.7
2014-Nov-16 11:34N 48°01' W 122°37'1818.0
2014-Nov-16 10:33N 47°44' W 122°26'1817.9
2014-Nov-16 09:34N 47°27' W 122°24'1010.1
2014-Nov-16 08:33N 47°17' W 122°24'1 1.4
2014-Nov-16 07:33N 47°16' W 122°23'0 0.0
2014-Nov-16 06:30N 47°16' W 122°23'0 0.0
2014-Nov-16 05:30N 47°16' W 122°23'0 0.0
2014-Nov-16 04:33N 47°16' W 122°23'0 0.0
2014-Nov-16 03:30N 47°16' W 122°23'0 0.0
2014-Nov-16 02:24N 47°16' W 122°23'0 0.2
2014-Nov-16 01:33N 47°16' W 122°23'0 0.0
2014-Nov-16 00:30N 47°16' W 122°23'0 0.0
2014-Nov-15 23:33N 47°16' W 122°23'0 0.0
2014-Nov-15 22:33N 47°16' W 122°23'0 0.0
2014-Nov-15 21:30N 47°16' W 122°23'0 0.0
2014-Nov-15 20:33N 47°16' W 122°23'0 0.0
2014-Nov-15 19:27N 47°16' W 122°23'0 0.0
2014-Nov-15 18:33N 47°16' W 122°23'0 0.0
2014-Nov-15 17:27N 47°16' W 122°23'0 0.0
2014-Nov-15 16:33N 47°16' W 122°23'3 3.0
2014-Nov-15 15:33N 47°18' W 122°26'1111.5
2014-Nov-15 14:33N 47°29' W 122°25'1918.9
2014-Nov-15 13:33N 47°48' W 122°27'1817.5
2014-Nov-15 12:33N 48°04' W 122°39'1615.7
2014-Nov-15 11:33N 48°12' W 122°60'1515.2
2014-Nov-15 10:33N 48°10' W 123°22'8 7.9
2014-Nov-15 09:33N 48°16' W 123°29'1010.4
2014-Nov-15 08:33N 48°23' W 123°17'1817.7
2014-Nov-15 07:33N 48°41' W 123°15'1312.7
2014-Nov-15 06:33N 48°52' W 123°07'1515.5
2014-Nov-15 05:34N 49°05' W 123°20'1110.8
2014-Nov-15 04:33N 49°08' W 123°04'7 6.6
2014-Nov-15 03:32N 49°11' W 122°55'0 0.0
2014-Nov-15 02:32N 49°11' W 122°55'0 0.0
2014-Nov-15 01:32N 49°11' W 122°55'0 0.0
2014-Nov-15 00:29N 49°11' W 122°55'0 0.0
2014-Nov-14 23:34N 49°11' W 122°55'4 4.2
2014-Nov-14 22:34N 49°09' W 123°01'9 9.1
2014-Nov-14 21:33N 49°08' W 123°15'8 8.3
2014-Nov-14 20:33N 48°59' W 123°14'1615.6
2014-Nov-14 19:33N 48°45' W 123°03'1514.8
2014-Nov-14 18:33N 48°31' W 123°11'1212.1
2014-Nov-14 17:33N 48°22' W 123°23'6 6.3
2014-Nov-14 16:33N 48°16' W 123°26'8 8.0
2014-Nov-14 15:33N 48°13' W 123°38'1010.1
2014-Nov-14 14:33N 48°13' W 123°53'2612.9
2014-Nov-14 12:33N 48°24' W 124°28'1313.0
2014-Nov-14 11:33N 48°29' W 124°46'1212.4
2014-Nov-14 10:33N 48°28' W 125°05'1312.6
2014-Nov-14 09:33N 48°25' W 125°23'1212.0
2014-Nov-14 08:33N 48°19' W 125°39'1312.7
2014-Nov-14 07:33N 48°12' W 125°55'  

Dump ship's entire track history